Matoes, Brazil
Current Conditions -  °F | °C
As of 1:00 AM on Monday 26 Jan 2015 (Local Time) from SBTE Reporting Station
Scattered Clouds Scattered Clouds  
Wind Chill: 77°   Ceiling: Unl
Heat Index: 78°   Visibility: 6mi
Dew Point: 75°   Wind: 5mph
Humidity: 94%   Direction: 320°NW
Pressure: 29.88"   Gusts: NA
Location:  5.52°S, 43.2°W
Report Text: SBTE 260400Z 32004KT 9999 SCT040 25/24 Q1012
Loading
Personal Weather Stations






























Interactive Weather Map New forecast layout! Learn more

10-Day Weather Forecast

Advertisements
Track Severe Weather on mobile